createdAt,value
2018-06-13T00:01:39.332Z,14.30
2018-06-13T00:04:08.118Z,14.30
2018-06-13T00:06:36.906Z,14.30
2018-06-13T00:09:08.339Z,14.30
2018-06-13T00:11:37.118Z,14.30
2018-06-13T00:14:05.992Z,14.30
2018-06-13T00:16:34.758Z,14.20
2018-06-13T00:19:03.538Z,14.20
2018-06-13T00:21:32.285Z,14.20
2018-06-13T00:24:01.051Z,14.30
2018-06-13T00:26:29.933Z,14.20
2018-06-13T00:28:58.729Z,14.20
2018-06-13T00:31:27.556Z,14.10
2018-06-13T00:33:56.370Z,14.00
2018-06-13T00:36:25.138Z,13.90
2018-06-13T00:38:53.922Z,13.80
2018-06-13T00:41:22.690Z,13.70
2018-06-13T00:43:51.454Z,13.70
2018-06-13T00:46:20.220Z,13.80
2018-06-13T00:48:49.106Z,13.80
2018-06-13T00:51:17.834Z,13.90
2018-06-13T00:53:46.642Z,13.90
2018-06-13T00:56:26.509Z,13.80
2018-06-13T00:58:55.433Z,13.70
2018-06-13T01:01:24.217Z,13.70
2018-06-13T01:03:52.993Z,13.70
2018-06-13T01:06:21.821Z,13.70
2018-06-13T01:08:50.684Z,13.80
2018-06-13T01:11:19.430Z,13.80
2018-06-13T01:13:48.199Z,13.80
2018-06-13T01:16:17.795Z,13.90
2018-06-13T01:18:46.554Z,13.90
2018-06-13T01:21:15.328Z,13.80
2018-06-13T01:23:44.098Z,13.80
2018-06-13T01:26:12.889Z,13.80
2018-06-13T01:28:41.710Z,13.70
2018-06-13T01:31:10.498Z,13.70
2018-06-13T01:33:39.264Z,13.70
2018-06-13T01:36:08.026Z,13.70
2018-06-13T01:38:36.797Z,13.70
2018-06-13T01:41:05.576Z,13.70
2018-06-13T01:43:34.365Z,13.80
2018-06-13T01:46:03.124Z,13.80
2018-06-13T01:48:31.934Z,13.80
2018-06-13T01:51:00.794Z,13.80
2018-06-13T01:53:30.241Z,13.80
2018-06-13T01:55:59.018Z,13.70
2018-06-13T01:58:27.810Z,13.60
2018-06-13T02:00:56.585Z,13.60
2018-06-13T02:03:25.380Z,13.50
2018-06-13T02:05:54.154Z,13.50
2018-06-13T02:08:22.905Z,13.50
2018-06-13T02:10:51.702Z,13.50
2018-06-13T02:13:20.470Z,13.60
2018-06-13T02:15:49.354Z,13.50
2018-06-13T02:18:18.126Z,13.50
2018-06-13T02:20:46.910Z,13.60
2018-06-13T02:23:15.683Z,13.70
2018-06-13T02:25:44.462Z,13.70
2018-06-13T02:28:13.238Z,13.70
2018-06-13T02:30:42.006Z,13.70
2018-06-13T02:33:10.754Z,13.80
2018-06-13T02:35:39.591Z,13.90
2018-06-13T02:38:08.362Z,14.00
2018-06-13T02:40:37.095Z,14.00
2018-06-13T02:43:05.856Z,14.00
2018-06-13T02:45:34.652Z,14.10
2018-06-13T02:48:03.477Z,14.10
2018-06-13T02:50:32.246Z,14.20
2018-06-13T02:53:01.002Z,14.30
2018-06-13T02:55:29.761Z,14.30
2018-06-13T02:57:58.583Z,14.30
2018-06-13T03:00:27.351Z,14.40
2018-06-13T03:02:56.106Z,14.40
2018-06-13T03:05:24.974Z,14.50
2018-06-13T03:07:53.779Z,14.50
2018-06-13T03:10:22.573Z,14.60
2018-06-13T03:12:51.347Z,14.70
2018-06-13T03:15:20.094Z,14.60
2018-06-13T03:17:48.818Z,14.60
2018-06-13T03:20:17.578Z,14.50
2018-06-13T03:22:46.345Z,14.60
2018-06-13T03:25:15.075Z,14.70
2018-06-13T03:27:43.842Z,14.80
2018-06-13T03:30:12.614Z,14.80
2018-06-13T03:32:41.400Z,14.80
2018-06-13T03:35:10.186Z,14.90
2018-06-13T03:37:38.927Z,15.00
2018-06-13T03:40:07.712Z,15.00
2018-06-13T03:42:36.502Z,15.10
2018-06-13T03:45:05.392Z,15.00
2018-06-13T03:47:34.153Z,15.00
2018-06-13T03:50:02.926Z,14.90
2018-06-13T03:52:31.710Z,14.70
2018-06-13T03:55:00.466Z,14.70
2018-06-13T03:57:29.202Z,14.70
2018-06-13T03:59:57.991Z,14.70
2018-06-13T04:02:26.774Z,14.70
2018-06-13T04:04:55.567Z,14.70
2018-06-13T04:07:24.334Z,14.90
2018-06-13T04:09:53.094Z,14.90
2018-06-13T04:12:21.866Z,14.80
2018-06-13T04:14:50.658Z,14.80
2018-06-13T04:17:19.488Z,14.80
2018-06-13T04:19:48.254Z,14.70
2018-06-13T04:22:17.018Z,14.70
2018-06-13T04:24:45.802Z,14.70
2018-06-13T04:27:14.571Z,14.70
2018-06-13T04:29:43.345Z,14.70
2018-06-13T04:32:12.105Z,14.60
2018-06-13T04:34:40.921Z,14.50
2018-06-13T04:37:09.718Z,14.50
2018-06-13T04:39:38.473Z,14.60
2018-06-13T04:42:07.262Z,14.70
2018-06-13T04:47:04.418Z,14.90
2018-06-13T04:49:33.191Z,15.00
2018-06-13T04:52:01.958Z,15.20
2018-06-13T04:54:30.734Z,15.20
2018-06-13T04:56:59.535Z,15.30
2018-06-13T04:59:28.310Z,15.40
2018-06-13T05:01:57.062Z,15.40
2018-06-13T05:04:25.846Z,15.50
2018-06-13T05:06:54.652Z,15.60
2018-06-13T05:09:23.662Z,15.70
2018-06-13T05:11:52.472Z,15.80
2018-06-13T05:14:21.234Z,15.90
2018-06-13T05:16:50.052Z,16.00
2018-06-13T05:19:18.818Z,16.10
2018-06-13T05:21:47.627Z,16.00
2018-06-13T05:24:16.381Z,16.00
2018-06-13T05:26:45.165Z,15.90
2018-06-13T05:29:14.011Z,15.90
2018-06-13T05:31:42.895Z,16.00
2018-06-13T05:34:11.674Z,16.00
2018-06-13T05:36:40.446Z,16.00
2018-06-13T05:39:09.182Z,16.10
2018-06-13T05:41:37.928Z,16.20
2018-06-13T05:44:06.707Z,16.10
2018-06-13T05:46:35.489Z,16.10
2018-06-13T05:49:04.369Z,16.20
2018-06-13T05:51:33.309Z,16.40
2018-06-13T05:54:02.098Z,16.60
2018-06-13T05:56:30.886Z,16.90
2018-06-13T05:58:59.666Z,17.20
2018-06-13T06:01:28.530Z,17.50
2018-06-13T06:03:57.270Z,17.90
2018-06-13T06:06:26.022Z,18.20
2018-06-13T06:08:54.822Z,18.40
2018-06-13T06:11:23.610Z,18.10
2018-06-13T06:13:52.354Z,18.20
2018-06-13T06:16:21.139Z,18.30
2018-06-13T06:18:49.931Z,18.40
2018-06-13T06:21:18.750Z,18.40
2018-06-13T06:23:47.530Z,18.20
2018-06-13T06:26:16.342Z,17.90
2018-06-13T06:28:45.118Z,17.70
2018-06-13T06:31:14.022Z,17.50
2018-06-13T06:33:42.841Z,17.20
2018-06-13T06:36:11.686Z,17.40
2018-06-13T06:41:08.870Z,17.80
2018-06-13T06:43:37.646Z,18.20
2018-06-13T06:46:06.430Z,18.00
2018-06-13T06:48:35.334Z,18.10
2018-06-13T06:51:04.138Z,18.00
2018-06-13T06:53:32.905Z,17.90
2018-06-13T06:56:01.695Z,17.80
2018-06-13T06:58:30.489Z,17.50
2018-06-13T07:00:59.270Z,17.40
2018-06-13T07:03:28.075Z,17.10
2018-06-13T07:05:56.851Z,17.20
2018-06-13T07:08:25.622Z,17.20
2018-06-13T07:10:54.729Z,17.40
2018-06-13T07:13:23.635Z,17.50
2018-06-13T07:15:52.400Z,17.40
2018-06-13T07:18:21.181Z,17.50
2018-06-13T07:20:49.978Z,17.50
2018-06-13T07:23:18.755Z,17.70
2018-06-13T07:25:47.627Z,17.90
2018-06-13T07:28:16.398Z,17.70
2018-06-13T07:30:45.259Z,17.70
2018-06-13T07:33:14.038Z,18.10
2018-06-13T07:35:42.836Z,18.10
2018-06-13T07:38:11.610Z,18.20
2018-06-13T07:40:40.426Z,18.10
2018-06-13T07:43:09.186Z,18.00
2018-06-13T07:45:37.974Z,18.10
2018-06-13T07:48:06.738Z,18.00
2018-06-13T07:50:35.504Z,18.10
2018-06-13T07:53:04.262Z,18.20
2018-06-13T07:55:33.086Z,17.90
2018-06-13T07:58:01.911Z,17.80
2018-06-13T08:00:30.687Z,17.90
2018-06-13T08:02:59.486Z,18.10
2018-06-13T08:05:28.255Z,18.30
2018-06-13T08:07:57.011Z,18.40
2018-06-13T08:10:25.880Z,18.40
2018-06-13T08:12:54.646Z,18.70
2018-06-13T08:15:23.495Z,18.50
2018-06-13T08:17:52.370Z,18.50
2018-06-13T08:20:21.179Z,18.30
2018-06-13T08:22:49.938Z,18.30
2018-06-13T08:25:18.701Z,18.40
2018-06-13T08:27:52.430Z,18.60
2018-06-13T08:30:21.266Z,18.40
2018-06-13T08:32:50.161Z,18.40
2018-06-13T08:35:18.987Z,18.90
2018-06-13T08:37:47.890Z,19.00
2018-06-13T08:40:16.743Z,19.60
2018-06-13T08:42:45.527Z,20.00
2018-06-13T08:45:14.339Z,20.30
2018-06-13T08:47:43.090Z,20.30
2018-06-13T08:50:11.850Z,20.10
2018-06-13T08:52:40.683Z,20.40
2018-06-13T08:55:09.455Z,20.30
2018-06-13T08:57:38.246Z,19.80
2018-06-13T09:00:07.078Z,19.80
2018-06-13T09:02:35.865Z,19.20
2018-06-13T09:05:04.824Z,19.30
2018-06-13T09:07:33.603Z,19.50
2018-06-13T09:10:02.410Z,19.70
2018-06-13T09:12:31.195Z,19.80
2018-06-13T09:15:00.036Z,20.10
2018-06-13T09:17:28.769Z,19.90
2018-06-13T09:19:57.630Z,19.50
2018-06-13T09:22:26.469Z,19.30
2018-06-13T09:24:55.294Z,19.20
2018-06-13T09:27:24.113Z,19.50
2018-06-13T09:29:52.901Z,19.70
2018-06-13T09:32:21.713Z,19.80
2018-06-13T09:37:19.050Z,20.40
2018-06-13T09:39:47.874Z,21.00
2018-06-13T09:42:16.636Z,21.40
2018-06-13T09:44:45.422Z,22.00
2018-06-13T09:47:15.137Z,22.30
2018-06-13T09:49:42.994Z,22.30
2018-06-13T09:52:11.785Z,21.90
2018-06-13T09:54:40.546Z,21.50
2018-06-13T09:57:09.334Z,21.80
2018-06-13T09:59:43.332Z,22.40
2018-06-13T10:02:18.512Z,22.60
2018-06-13T10:04:48.231Z,23.00
2018-06-13T10:07:17.081Z,22.40
2018-06-13T10:09:45.847Z,22.80
2018-06-13T10:12:14.726Z,22.90
2018-06-13T10:14:43.478Z,23.20
2018-06-13T10:17:12.291Z,22.90
2018-06-13T10:19:41.106Z,22.30
2018-06-13T10:22:09.996Z,21.40
2018-06-13T10:24:38.753Z,21.00
2018-06-13T10:27:12.759Z,21.10
2018-06-13T10:29:41.522Z,20.50
2018-06-13T10:32:10.285Z,20.30
2018-06-13T10:34:39.049Z,20.60
2018-06-13T10:37:07.818Z,20.00
2018-06-13T10:39:36.701Z,19.90
2018-06-13T10:42:05.598Z,19.90
2018-06-13T10:44:34.373Z,19.80
2018-06-13T10:47:03.131Z,19.70
2018-06-13T10:49:31.911Z,19.80
2018-06-13T10:52:00.667Z,19.80
2018-06-13T10:54:29.438Z,19.60
2018-06-13T10:56:58.218Z,19.50
2018-06-13T10:59:26.967Z,19.70
2018-06-13T11:01:55.746Z,19.70
2018-06-13T11:04:24.602Z,20.10
2018-06-13T11:06:53.389Z,20.40
2018-06-13T11:09:22.189Z,20.80
2018-06-13T11:11:50.994Z,20.60
2018-06-13T11:14:19.746Z,20.20
2018-06-13T11:16:48.529Z,20.30
2018-06-13T11:19:17.424Z,20.80
2018-06-13T11:21:46.210Z,22.00
2018-06-13T11:24:15.010Z,22.80
2018-06-13T11:26:43.979Z,22.60
2018-06-13T11:29:12.778Z,22.70
2018-06-13T11:31:41.600Z,23.20
2018-06-13T11:34:10.382Z,23.40
2018-06-13T11:36:39.166Z,23.80
2018-06-13T11:39:09.390Z,24.00
2018-06-13T11:41:44.643Z,23.80
2018-06-13T11:44:13.418Z,22.60
2018-06-13T11:46:42.230Z,22.30
2018-06-13T11:49:11.028Z,21.80
2018-06-13T11:51:39.830Z,22.70
2018-06-13T11:54:08.647Z,23.50
2018-06-13T11:56:37.542Z,23.80
2018-06-13T11:59:06.434Z,23.90
2018-06-13T12:01:35.235Z,24.00
2018-06-13T12:04:04.042Z,24.20
2018-06-13T12:06:32.810Z,24.10
2018-06-13T12:09:01.603Z,24.50
2018-06-13T12:11:30.473Z,24.50
2018-06-13T12:13:59.405Z,23.40
2018-06-13T12:18:56.778Z,22.90
2018-06-13T12:21:25.586Z,23.10
2018-06-13T12:23:54.370Z,23.10
2018-06-13T12:26:23.142Z,23.40
2018-06-13T12:28:51.899Z,23.10
2018-06-13T12:31:20.677Z,22.80
2018-06-13T12:33:49.450Z,23.10
2018-06-13T12:36:18.207Z,22.60
2018-06-13T12:38:46.964Z,23.50
2018-06-13T12:41:15.754Z,24.30
2018-06-13T12:43:44.534Z,24.30
2018-06-13T12:46:13.302Z,24.80
2018-06-13T12:48:42.078Z,24.70
2018-06-13T12:51:10.851Z,24.40
2018-06-13T12:53:39.622Z,25.20
2018-06-13T12:56:08.406Z,25.40
2018-06-13T12:58:37.479Z,25.40
2018-06-13T13:01:06.342Z,25.70
2018-06-13T13:03:35.101Z,26.10
2018-06-13T13:06:03.946Z,25.90
2018-06-13T13:08:32.750Z,26.90
2018-06-13T13:11:01.518Z,26.80
2018-06-13T13:13:30.377Z,26.30
2018-06-13T13:15:59.210Z,25.70
2018-06-13T13:18:27.973Z,25.40
2018-06-13T13:20:56.754Z,25.20
2018-06-13T13:23:25.531Z,24.50
2018-06-13T13:25:57.292Z,24.60
2018-06-13T13:28:26.111Z,24.40
2018-06-13T13:30:54.894Z,24.20
2018-06-13T13:33:23.673Z,25.30
2018-06-13T13:38:20.852Z,26.90
2018-06-13T13:40:49.623Z,26.10
2018-06-13T13:43:18.394Z,26.40
2018-06-13T13:45:47.296Z,25.60
2018-06-13T13:48:15.978Z,25.40
2018-06-13T13:50:44.754Z,25.10
2018-06-13T13:53:13.534Z,23.70
2018-06-13T13:55:42.294Z,23.40
2018-06-13T13:58:11.106Z,23.30
2018-06-13T14:00:39.863Z,22.90
2018-06-13T14:03:08.631Z,22.70
2018-06-13T14:05:37.407Z,23.20
2018-06-13T14:08:06.227Z,23.50
2018-06-13T14:10:34.985Z,22.60
2018-06-13T14:13:03.817Z,22.50
2018-06-13T14:15:32.647Z,23.00
2018-06-13T14:18:01.431Z,23.80
2018-06-13T14:20:30.234Z,24.00
2018-06-13T14:22:59.007Z,23.40
2018-06-13T14:25:27.787Z,24.60
2018-06-13T14:27:56.562Z,24.20
2018-06-13T14:30:25.356Z,24.40
2018-06-13T14:32:54.130Z,25.60
2018-06-13T14:35:22.949Z,26.10
2018-06-13T14:37:51.725Z,25.70
2018-06-13T14:40:20.502Z,25.80
2018-06-13T14:42:49.303Z,25.20
2018-06-13T14:45:18.059Z,25.50
2018-06-13T14:47:46.851Z,25.00
2018-06-13T14:50:15.662Z,25.10
2018-06-13T14:52:44.593Z,26.00
2018-06-13T14:55:13.401Z,25.80
2018-06-13T14:57:42.184Z,25.70
2018-06-13T15:00:10.995Z,26.70
2018-06-13T15:02:39.747Z,26.60
2018-06-13T15:05:08.631Z,26.80
2018-06-13T15:07:37.402Z,26.00
2018-06-13T15:10:06.214Z,25.90
2018-06-13T15:12:35.031Z,25.60
2018-06-13T15:15:03.907Z,26.00
2018-06-13T15:17:32.678Z,26.30
2018-06-13T15:20:01.452Z,26.60
2018-06-13T15:22:30.218Z,24.80
2018-06-13T15:24:59.106Z,25.40
2018-06-13T15:27:28.028Z,26.50
2018-06-13T15:29:56.805Z,26.20
2018-06-13T15:32:25.575Z,27.60
2018-06-13T15:34:54.409Z,29.10
2018-06-13T15:37:23.220Z,30.00
2018-06-13T15:39:52.036Z,29.20
2018-06-13T15:42:20.845Z,29.30
2018-06-13T15:44:49.647Z,27.40
2018-06-13T15:47:18.442Z,28.30
2018-06-13T15:49:47.226Z,29.00
2018-06-13T15:52:15.982Z,28.40
2018-06-13T15:54:44.767Z,26.90
2018-06-13T15:57:13.578Z,26.80
2018-06-13T15:59:42.312Z,27.40
2018-06-13T16:02:11.086Z,28.10
2018-06-13T16:04:39.847Z,27.80
2018-06-13T16:07:08.614Z,27.30
2018-06-13T16:09:37.508Z,28.70
2018-06-13T16:12:06.358Z,27.30
2018-06-13T16:17:03.514Z,23.20
2018-06-13T16:19:32.354Z,21.90
2018-06-13T16:22:01.241Z,22.10
2018-06-13T16:24:30.034Z,23.20
2018-06-13T16:26:58.798Z,24.00
2018-06-13T16:29:27.729Z,24.90
2018-06-13T16:31:56.513Z,24.50
2018-06-13T16:34:25.310Z,24.30
2018-06-13T16:36:54.083Z,23.80
2018-06-13T16:39:22.842Z,24.10
2018-06-13T16:41:51.839Z,25.40
2018-06-13T16:44:20.619Z,24.10
2018-06-13T16:46:49.417Z,23.80
2018-06-13T16:49:18.210Z,23.30
2018-06-13T16:51:52.501Z,23.60
2018-06-13T16:54:32.412Z,24.20
2018-06-13T16:57:01.192Z,24.40
2018-06-13T16:59:29.979Z,24.20
2018-06-13T17:01:58.766Z,23.30
2018-06-13T17:04:27.544Z,23.30
2018-06-13T17:06:56.320Z,23.00
2018-06-13T17:09:25.112Z,23.20
2018-06-13T17:11:53.874Z,24.10
2018-06-13T17:14:22.634Z,24.00
2018-06-13T17:16:51.426Z,24.30
2018-06-13T17:19:20.198Z,24.30
2018-06-13T17:21:49.017Z,23.70
2018-06-13T17:24:17.799Z,23.30
2018-06-13T17:26:46.572Z,22.80
2018-06-13T17:29:15.338Z,23.00
2018-06-13T17:31:44.126Z,23.30
2018-06-13T17:34:12.874Z,22.90
2018-06-13T17:36:41.666Z,22.20
2018-06-13T17:39:11.461Z,21.80
2018-06-13T17:41:40.302Z,20.90
2018-06-13T17:44:09.254Z,19.90
2018-06-13T17:46:38.091Z,19.70
2018-06-13T17:51:35.254Z,19.10
2018-06-13T17:54:04.144Z,19.00
2018-06-13T17:56:32.874Z,18.80
2018-06-13T17:59:01.642Z,18.50
2018-06-13T18:01:30.559Z,18.50
2018-06-13T18:03:59.360Z,18.30
2018-06-13T18:06:28.130Z,18.20
2018-06-13T18:08:56.906Z,18.10
2018-06-13T18:11:25.676Z,18.20
2018-06-13T18:13:54.431Z,18.00
2018-06-13T18:16:23.302Z,18.00
2018-06-13T18:18:52.194Z,17.90
2018-06-13T18:21:20.991Z,17.80
2018-06-13T18:23:49.788Z,17.70
2018-06-13T18:26:18.551Z,17.60
2018-06-13T18:28:47.362Z,17.50
2018-06-13T18:31:16.115Z,17.50
2018-06-13T18:33:44.902Z,17.50
2018-06-13T18:36:14.039Z,17.40
2018-06-13T18:38:42.904Z,17.30
2018-06-13T18:41:11.695Z,17.20
2018-06-13T18:43:41.022Z,17.10
2018-06-13T18:46:09.878Z,16.90
2018-06-13T18:48:38.655Z,16.80
2018-06-13T18:51:07.534Z,16.80
2018-06-13T18:53:36.382Z,16.80
2018-06-13T18:56:05.167Z,16.70
2018-06-13T18:58:33.977Z,16.60
2018-06-13T19:01:02.790Z,16.50
2018-06-13T19:03:31.553Z,16.50
2018-06-13T19:06:00.619Z,16.40
2018-06-13T19:08:29.462Z,16.40
2018-06-13T19:10:58.246Z,16.30
2018-06-13T19:13:27.078Z,16.30
2018-06-13T19:15:55.870Z,16.20
2018-06-13T19:18:24.629Z,16.20
2018-06-13T19:20:53.426Z,16.20
2018-06-13T19:23:25.234Z,16.10
2018-06-13T19:25:54.128Z,16.00
2018-06-13T19:28:22.909Z,16.00
2018-06-13T19:30:51.742Z,15.80
2018-06-13T19:33:20.607Z,15.70
2018-06-13T19:35:50.090Z,15.60
2018-06-13T19:38:18.903Z,15.50
2018-06-13T19:40:47.776Z,15.50
2018-06-13T19:43:21.766Z,15.30
2018-06-13T19:45:50.522Z,15.30
2018-06-13T19:48:24.438Z,15.30
2018-06-13T19:50:53.220Z,15.20
2018-06-13T19:53:27.266Z,15.20
2018-06-13T19:56:01.339Z,15.10
2018-06-13T19:58:30.094Z,15.10
2018-06-13T20:00:58.870Z,15.10
2018-06-13T20:03:33.067Z,14.90
2018-06-13T20:06:01.859Z,14.90
2018-06-13T20:08:30.624Z,15.00
2018-06-13T20:10:59.501Z,14.90
2018-06-13T20:13:33.536Z,14.80
2018-06-13T20:16:07.482Z,14.80
2018-06-13T20:18:41.503Z,14.80
2018-06-13T20:21:11.282Z,14.80
2018-06-13T20:23:40.874Z,14.70
2018-06-13T20:26:14.902Z,14.70
2018-06-13T20:28:48.961Z,14.60
2018-06-13T20:31:33.354Z,14.60
2018-06-13T20:34:02.114Z,14.60
2018-06-13T20:36:30.890Z,14.50
2018-06-13T20:38:59.682Z,14.50
2018-06-13T20:41:28.483Z,14.50
2018-06-13T20:43:57.261Z,14.50
2018-06-13T20:46:26.054Z,14.40
2018-06-13T20:48:54.835Z,14.30
2018-06-13T20:51:23.670Z,14.20
2018-06-13T20:53:52.489Z,14.20
2018-06-13T20:56:21.243Z,14.20
2018-06-13T20:58:50.004Z,14.10
2018-06-13T21:01:18.806Z,14.10
2018-06-13T21:03:47.559Z,14.10
2018-06-13T21:06:16.342Z,14.10
2018-06-13T21:08:45.127Z,14.00
2018-06-13T21:11:13.939Z,14.00
2018-06-13T21:13:43.102Z,14.00
2018-06-13T21:16:11.925Z,14.00
2018-06-13T21:18:40.706Z,13.90
2018-06-13T21:21:09.474Z,13.90
2018-06-13T21:23:38.262Z,13.80
2018-06-13T21:26:07.027Z,13.80
2018-06-13T21:28:35.926Z,13.80
2018-06-13T21:31:04.720Z,13.70
2018-06-13T21:33:33.630Z,13.70
2018-06-13T21:36:02.412Z,13.60
2018-06-13T21:38:31.182Z,13.50
2018-06-13T21:40:59.944Z,13.50
2018-06-13T21:43:28.701Z,13.40
2018-06-13T21:45:57.476Z,13.30
2018-06-13T21:48:26.234Z,13.30
2018-06-13T21:50:54.994Z,13.20
2018-06-13T21:53:23.856Z,13.20
2018-06-13T21:55:52.643Z,13.10
2018-06-13T21:58:21.429Z,13.10
2018-06-13T22:00:50.231Z,13.10
2018-06-13T22:03:19.026Z,13.00
2018-06-13T22:05:47.877Z,13.00
2018-06-13T22:08:16.766Z,13.00
2018-06-13T22:10:45.530Z,12.90
2018-06-13T22:13:14.315Z,12.90
2018-06-13T22:15:43.138Z,12.90
2018-06-13T22:18:11.936Z,12.90
2018-06-13T22:20:40.690Z,12.90
2018-06-13T22:23:09.458Z,12.90
2018-06-13T22:25:38.254Z,12.90
2018-06-13T22:28:07.047Z,13.00
2018-06-13T22:30:35.831Z,13.00
2018-06-13T22:33:04.610Z,13.00
2018-06-13T22:35:33.368Z,12.90
2018-06-13T22:38:02.130Z,12.90
2018-06-13T22:40:30.899Z,12.90
2018-06-13T22:42:59.675Z,12.90
2018-06-13T22:45:28.455Z,12.80
2018-06-13T22:47:57.246Z,12.90
2018-06-13T22:50:26.038Z,12.90
2018-06-13T22:52:54.814Z,12.80
2018-06-13T22:55:23.586Z,12.80
2018-06-13T22:57:52.322Z,12.80
2018-06-13T23:00:32.632Z,12.90
2018-06-13T23:03:01.452Z,12.80
2018-06-13T23:05:30.206Z,12.80
2018-06-13T23:07:58.994Z,12.70
2018-06-13T23:10:27.774Z,12.80
2018-06-13T23:12:56.574Z,12.80
2018-06-13T23:15:25.334Z,12.70
2018-06-13T23:17:54.106Z,12.60
2018-06-13T23:20:22.866Z,12.60
2018-06-13T23:22:51.678Z,12.60
2018-06-13T23:25:20.442Z,12.50
2018-06-13T23:27:49.194Z,12.50
2018-06-13T23:30:17.982Z,12.50
2018-06-13T23:32:46.760Z,12.40
2018-06-13T23:35:15.559Z,12.30
2018-06-13T23:37:44.326Z,12.30
2018-06-13T23:40:13.099Z,12.30
2018-06-13T23:42:41.854Z,12.30
2018-06-13T23:45:10.619Z,12.30
2018-06-13T23:47:39.395Z,12.30
2018-06-13T23:50:08.162Z,12.30
2018-06-13T23:52:36.930Z,12.20
2018-06-13T23:55:05.818Z,12.20
2018-06-13T23:57:34.619Z,12.20
